sensor_id;sensor_type;location;lat;lon;timestamp;pressure;altitude;pressure_sealevel;temperature;humidity
43741;BME280;29352;48.708;9.290;2023-01-28T00:02:05;98412.19;;;-7.43;80.68
43741;BME280;29352;48.708;9.290;2023-01-28T00:04:30;98409.97;;;-7.34;79.92
43741;BME280;29352;48.708;9.290;2023-01-28T00:06:56;98404.75;;;-7.63;81.46
43741;BME280;29352;48.708;9.290;2023-01-28T00:09:21;98401.91;;;-7.89;81.45
43741;BME280;29352;48.708;9.290;2023-01-28T00:11:47;98411.41;;;-7.59;80.92
43741;BME280;29352;48.708;9.290;2023-01-28T00:14:12;98405.53;;;-7.47;80.55
43741;BME280;29352;48.708;9.290;2023-01-28T00:16:38;98400.03;;;-7.56;80.96
43741;BME280;29352;48.708;9.290;2023-01-28T00:19:03;98398.19;;;-7.54;81.47
43741;BME280;29352;48.708;9.290;2023-01-28T00:21:28;98393.63;;;-7.65;81.06
43741;BME280;29352;48.708;9.290;2023-01-28T00:23:55;98387.44;;;-7.63;80.89
43741;BME280;29352;48.708;9.290;2023-01-28T00:26:22;98393.75;;;-7.52;80.66
43741;BME280;29352;48.708;9.290;2023-01-28T00:28:49;98392.56;;;-7.47;80.63
43741;BME280;29352;48.708;9.290;2023-01-28T00:31:17;98387.38;;;-7.47;80.49
43741;BME280;29352;48.708;9.290;2023-01-28T00:33:46;98384.81;;;-7.77;80.91
43741;BME280;29352;48.708;9.290;2023-01-28T00:36:14;98390.97;;;-7.49;80.15
43741;BME280;29352;48.708;9.290;2023-01-28T00:38:41;98386.59;;;-7.63;80.48
43741;BME280;29352;48.708;9.290;2023-01-28T00:41:13;98379.44;;;-7.74;80.61
43741;BME280;29352;48.708;9.290;2023-01-28T00:43:41;98382.25;;;-7.48;81.03
43741;BME280;29352;48.708;9.290;2023-01-28T00:46:10;98382.06;;;-7.59;80.71
43741;BME280;29352;48.708;9.290;2023-01-28T00:48:38;98375.22;;;-7.60;80.99
43741;BME280;29352;48.708;9.290;2023-01-28T00:51:05;98376.41;;;-7.66;81.07
43741;BME280;29352;48.708;9.290;2023-01-28T00:53:32;98383.34;;;-7.67;81.28
43741;BME280;29352;48.708;9.290;2023-01-28T00:56:02;98384.34;;;-7.69;81.12
43741;BME280;29352;48.708;9.290;2023-01-28T00:58:28;98386.31;;;-7.58;81.51
43741;BME280;29352;48.708;9.290;2023-01-28T01:00:54;98384.47;;;-7.71;81.59
43741;BME280;29352;48.708;9.290;2023-01-28T01:03:19;98383.03;;;-7.76;81.83
43741;BME280;29352;48.708;9.290;2023-01-28T01:05:45;98386.66;;;-7.65;81.29
43741;BME280;29352;48.708;9.290;2023-01-28T01:08:11;98387.25;;;-7.59;81.37
43741;BME280;29352;48.708;9.290;2023-01-28T01:10:38;98386.78;;;-7.66;80.81
43741;BME280;29352;48.708;9.290;2023-01-28T01:13:05;98390.66;;;-7.73;81.26
43741;BME280;29352;48.708;9.290;2023-01-28T01:15:32;98394.44;;;-7.65;81.50
43741;BME280;29352;48.708;9.290;2023-01-28T01:17:57;98394.94;;;-7.58;80.89
43741;BME280;29352;48.708;9.290;2023-01-28T01:20:26;98390.19;;;-7.66;81.44
43741;BME280;29352;48.708;9.290;2023-01-28T01:22:55;98387.94;;;-7.72;81.21
43741;BME280;29352;48.708;9.290;2023-01-28T01:25:20;98390.53;;;-7.72;81.56
43741;BME280;29352;48.708;9.290;2023-01-28T01:27:48;98392.63;;;-7.48;80.96
43741;BME280;29352;48.708;9.290;2023-01-28T01:30:15;98383.00;;;-7.60;81.54
43741;BME280;29352;48.708;9.290;2023-01-28T01:32:41;98388.88;;;-7.73;82.18
43741;BME280;29352;48.708;9.290;2023-01-28T01:35:09;98385.81;;;-7.79;82.31
43741;BME280;29352;48.708;9.290;2023-01-28T01:37:35;98388.34;;;-7.78;81.91
43741;BME280;29352;48.708;9.290;2023-01-28T01:40:03;98392.41;;;-7.74;81.97
43741;BME280;29352;48.708;9.290;2023-01-28T01:42:31;98392.19;;;-7.85;82.15
43741;BME280;29352;48.708;9.290;2023-01-28T01:45:00;98390.66;;;-7.73;81.37
43741;BME280;29352;48.708;9.290;2023-01-28T01:47:37;98399.34;;;-7.74;82.48
43741;BME280;29352;48.708;9.290;2023-01-28T01:50:32;98404.22;;;-7.84;82.07
43741;BME280;29352;48.708;9.290;2023-01-28T01:53:10;98402.44;;;-7.68;81.82
43741;BME280;29352;48.708;9.290;2023-01-28T01:55:46;98404.53;;;-7.74;81.81
43741;BME280;29352;48.708;9.290;2023-01-28T01:58:16;98401.38;;;-7.79;82.69
43741;BME280;29352;48.708;9.290;2023-01-28T02:00:45;98406.34;;;-7.60;82.14
43741;BME280;29352;48.708;9.290;2023-01-28T02:03:11;98411.94;;;-7.68;81.67
43741;BME280;29352;48.708;9.290;2023-01-28T02:05:39;98410.63;;;-7.75;81.72
43741;BME280;29352;48.708;9.290;2023-01-28T02:08:05;98409.16;;;-7.65;82.06
43741;BME280;29352;48.708;9.290;2023-01-28T02:10:58;98412.22;;;-7.73;82.04
43741;BME280;29352;48.708;9.290;2023-01-28T02:13:40;98418.88;;;-7.69;82.21
43741;BME280;29352;48.708;9.290;2023-01-28T02:16:11;98414.94;;;-7.60;82.09
43741;BME280;29352;48.708;9.290;2023-01-28T02:18:38;98412.84;;;-7.39;81.36
43741;BME280;29352;48.708;9.290;2023-01-28T02:27:36;98411.06;;;-7.53;81.41
43741;BME280;29352;48.708;9.290;2023-01-28T02:30:29;98418.16;;;-7.71;81.21
43741;BME280;29352;48.708;9.290;2023-01-28T02:33:44;98415.25;;;-7.50;80.75
43741;BME280;29352;48.708;9.290;2023-01-28T02:36:29;98421.63;;;-7.42;80.70
43741;BME280;29352;48.708;9.290;2023-01-28T02:39:07;98414.13;;;-7.46;81.14
43741;BME280;29352;48.708;9.290;2023-01-28T02:41:45;98415.81;;;-7.45;80.71
43741;BME280;29352;48.708;9.290;2023-01-28T02:44:17;98413.19;;;-7.59;81.05
43741;BME280;29352;48.708;9.290;2023-01-28T02:46:42;98417.28;;;-7.41;80.79
43741;BME280;29352;48.708;9.290;2023-01-28T02:49:46;98413.22;;;-7.45;81.58
43741;BME280;29352;48.708;9.290;2023-01-28T02:55:44;98415.09;;;-7.33;81.20
43741;BME280;29352;48.708;9.290;2023-01-28T02:58:36;98415.31;;;-7.52;81.28
43741;BME280;29352;48.708;9.290;2023-01-28T03:01:49;98413.56;;;-7.51;81.07
43741;BME280;29352;48.708;9.290;2023-01-28T03:04:40;98420.84;;;-7.58;81.73
43741;BME280;29352;48.708;9.290;2023-01-28T03:07:15;98424.09;;;-7.54;81.95
43741;BME280;29352;48.708;9.290;2023-01-28T03:09:45;98426.16;;;-7.59;81.88
43741;BME280;29352;48.708;9.290;2023-01-28T03:12:19;98425.75;;;-7.68;82.10
43741;BME280;29352;48.708;9.290;2023-01-28T03:15:13;98423.19;;;-7.53;82.52
43741;BME280;29352;48.708;9.290;2023-01-28T03:18:05;98428.06;;;-7.33;81.73
43741;BME280;29352;48.708;9.290;2023-01-28T03:21:21;98422.91;;;-7.63;82.65
43741;BME280;29352;48.708;9.290;2023-01-28T03:27:20;98429.75;;;-7.62;82.76
43741;BME280;29352;48.708;9.290;2023-01-28T03:30:18;98425.22;;;-7.58;82.83
43741;BME280;29352;48.708;9.290;2023-01-28T03:33:06;98420.84;;;-7.58;83.57
43741;BME280;29352;48.708;9.290;2023-01-28T03:35:51;98426.16;;;-7.45;82.82
43741;BME280;29352;48.708;9.290;2023-01-28T03:38:35;98430.41;;;-7.58;83.53
43741;BME280;29352;48.708;9.290;2023-01-28T03:41:20;98428.22;;;-7.50;83.58
43741;BME280;29352;48.708;9.290;2023-01-28T03:43:48;98425.28;;;-7.30;82.68
43741;BME280;29352;48.708;9.290;2023-01-28T03:46:15;98424.72;;;-7.21;82.57
43741;BME280;29352;48.708;9.290;2023-01-28T03:48:43;98437.84;;;-7.38;82.91
43741;BME280;29352;48.708;9.290;2023-01-28T03:51:09;98432.53;;;-7.51;83.14
43741;BME280;29352;48.708;9.290;2023-01-28T03:53:37;98437.84;;;-7.38;83.01
43741;BME280;29352;48.708;9.290;2023-01-28T03:56:03;98445.09;;;-7.43;83.30
43741;BME280;29352;48.708;9.290;2023-01-28T03:58:29;98442.25;;;-7.54;83.29
43741;BME280;29352;48.708;9.290;2023-01-28T04:01:13;98446.25;;;-7.49;82.73
43741;BME280;29352;48.708;9.290;2023-01-28T04:03:38;98436.38;;;-7.42;82.84
43741;BME280;29352;48.708;9.290;2023-01-28T04:06:06;98441.03;;;-7.33;82.76
43741;BME280;29352;48.708;9.290;2023-01-28T04:08:33;98439.59;;;-7.53;83.39
43741;BME280;29352;48.708;9.290;2023-01-28T04:10:59;98440.81;;;-7.44;83.09
43741;BME280;29352;48.708;9.290;2023-01-28T04:13:43;98435.44;;;-7.41;82.94
43741;BME280;29352;48.708;9.290;2023-01-28T04:16:11;98435.63;;;-7.44;83.00
43741;BME280;29352;48.708;9.290;2023-01-28T04:18:37;98440.38;;;-7.36;83.13
43741;BME280;29352;48.708;9.290;2023-01-28T04:21:03;98444.31;;;-7.45;83.68
43741;BME280;29352;48.708;9.290;2023-01-28T04:23:29;98453.41;;;-7.38;83.58
43741;BME280;29352;48.708;9.290;2023-01-28T04:25:55;98451.31;;;-7.31;82.88
43741;BME280;29352;48.708;9.290;2023-01-28T04:28:20;98451.75;;;-7.39;83.37
43741;BME280;29352;48.708;9.290;2023-01-28T04:30:46;98453.22;;;-7.49;83.48
43741;BME280;29352;48.708;9.290;2023-01-28T04:33:12;98455.56;;;-7.16;82.51
43741;BME280;29352;48.708;9.290;2023-01-28T04:35:37;98462.72;;;-7.20;82.91
43741;BME280;29352;48.708;9.290;2023-01-28T04:38:03;98464.38;;;-7.33;83.17
43741;BME280;29352;48.708;9.290;2023-01-28T04:40:28;98465.06;;;-7.15;82.48
43741;BME280;29352;48.708;9.290;2023-01-28T04:42:55;98467.97;;;-7.35;83.42
43741;BME280;29352;48.708;9.290;2023-01-28T04:45:21;98471.06;;;-7.15;83.28
43741;BME280;29352;48.708;9.290;2023-01-28T04:47:48;98472.31;;;-7.36;83.30
43741;BME280;29352;48.708;9.290;2023-01-28T04:50:13;98472.16;;;-7.33;83.67
43741;BME280;29352;48.708;9.290;2023-01-28T04:52:39;98474.69;;;-7.47;83.95
43741;BME280;29352;48.708;9.290;2023-01-28T04:55:06;98476.75;;;-7.38;83.68
43741;BME280;29352;48.708;9.290;2023-01-28T04:57:33;98477.41;;;-7.34;84.11
43741;BME280;29352;48.708;9.290;2023-01-28T04:59:59;98480.09;;;-7.36;84.26
43741;BME280;29352;48.708;9.290;2023-01-28T05:02:24;98478.25;;;-7.34;84.26
43741;BME280;29352;48.708;9.290;2023-01-28T05:04:49;98478.69;;;-7.42;84.33
43741;BME280;29352;48.708;9.290;2023-01-28T05:07:15;98483.19;;;-7.29;83.89
43741;BME280;29352;48.708;9.290;2023-01-28T05:09:40;98471.84;;;-7.43;84.22
43741;BME280;29352;48.708;9.290;2023-01-28T05:12:06;98474.66;;;-7.31;84.50
43741;BME280;29352;48.708;9.290;2023-01-28T05:14:32;98475.88;;;-7.53;84.83
43741;BME280;29352;48.708;9.290;2023-01-28T05:16:57;98475.69;;;-7.64;85.52
43741;BME280;29352;48.708;9.290;2023-01-28T05:19:23;98469.69;;;-7.50;84.91
43741;BME280;29352;48.708;9.290;2023-01-28T05:21:48;98467.34;;;-7.55;85.06
43741;BME280;29352;48.708;9.290;2023-01-28T05:24:13;98471.88;;;-7.58;85.58
43741;BME280;29352;48.708;9.290;2023-01-28T05:26:39;98479.53;;;-7.41;85.13
43741;BME280;29352;48.708;9.290;2023-01-28T05:29:05;98478.75;;;-7.57;85.35
43741;BME280;29352;48.708;9.290;2023-01-28T05:31:31;98474.44;;;-7.43;84.91
43741;BME280;29352;48.708;9.290;2023-01-28T05:33:56;98478.34;;;-7.35;84.75
43741;BME280;29352;48.708;9.290;2023-01-28T05:36:22;98481.13;;;-6.80;83.20
43741;BME280;29352;48.708;9.290;2023-01-28T05:38:47;98480.88;;;-7.20;82.86
43741;BME280;29352;48.708;9.290;2023-01-28T05:41:12;98482.59;;;-6.90;82.44
43741;BME280;29352;48.708;9.290;2023-01-28T05:43:38;98487.41;;;-7.12;83.08
43741;BME280;29352;48.708;9.290;2023-01-28T05:46:03;98480.88;;;-7.20;83.71
43741;BME280;29352;48.708;9.290;2023-01-28T05:48:29;98484.84;;;-7.28;84.59
43741;BME280;29352;48.708;9.290;2023-01-28T05:50:55;98488.28;;;-7.28;84.19
43741;BME280;29352;48.708;9.290;2023-01-28T05:53:21;98485.22;;;-7.20;84.22
43741;BME280;29352;48.708;9.290;2023-01-28T05:55:48;98487.13;;;-7.38;84.71
43741;BME280;29352;48.708;9.290;2023-01-28T05:58:14;98490.41;;;-7.20;84.34
43741;BME280;29352;48.708;9.290;2023-01-28T06:00:40;98495.53;;;-7.19;84.07
43741;BME280;29352;48.708;9.290;2023-01-28T06:03:05;98494.03;;;-7.23;84.10
43741;BME280;29352;48.708;9.290;2023-01-28T06:05:31;98492.59;;;-7.12;84.15
43741;BME280;29352;48.708;9.290;2023-01-28T06:07:56;98496.53;;;-7.21;84.01
43741;BME280;29352;48.708;9.290;2023-01-28T06:10:22;98494.91;;;-6.94;83.63
43741;BME280;29352;48.708;9.290;2023-01-28T06:12:47;98502.69;;;-7.08;83.84
43741;BME280;29352;48.708;9.290;2023-01-28T06:15:13;98508.72;;;-7.07;83.63
43741;BME280;29352;48.708;9.290;2023-01-28T06:17:38;98504.66;;;-7.27;85.53
43741;BME280;29352;48.708;9.290;2023-01-28T06:20:04;98502.56;;;-7.21;85.10
43741;BME280;29352;48.708;9.290;2023-01-28T06:22:29;98507.03;;;-7.23;84.88
43741;BME280;29352;48.708;9.290;2023-01-28T06:24:55;98506.78;;;-7.34;85.84
43741;BME280;29352;48.708;9.290;2023-01-28T06:27:20;98518.00;;;-7.64;87.22
43741;BME280;29352;48.708;9.290;2023-01-28T06:29:46;98523.50;;;-7.54;87.05
43741;BME280;29352;48.708;9.290;2023-01-28T06:32:11;98527.91;;;-7.40;86.48
43741;BME280;29352;48.708;9.290;2023-01-28T06:34:36;98533.94;;;-7.55;87.11
43741;BME280;29352;48.708;9.290;2023-01-28T06:37:02;98538.72;;;-7.64;87.21
43741;BME280;29352;48.708;9.290;2023-01-28T06:39:28;98539.16;;;-7.71;87.68
43741;BME280;29352;48.708;9.290;2023-01-28T06:41:56;98538.44;;;-7.43;87.19
43741;BME280;29352;48.708;9.290;2023-01-28T06:44:22;98542.38;;;-7.52;87.30
43741;BME280;29352;48.708;9.290;2023-01-28T06:46:48;98547.06;;;-7.58;87.59
43741;BME280;29352;48.708;9.290;2023-01-28T06:49:13;98544.41;;;-7.73;87.86
43741;BME280;29352;48.708;9.290;2023-01-28T06:51:39;98548.00;;;-7.59;87.55
43741;BME280;29352;48.708;9.290;2023-01-28T06:54:05;98547.75;;;-7.71;88.26
43741;BME280;29352;48.708;9.290;2023-01-28T06:56:30;98553.53;;;-7.66;88.10
43741;BME280;29352;48.708;9.290;2023-01-28T06:58:56;98549.69;;;-7.74;88.02
43741;BME280;29352;48.708;9.290;2023-01-28T07:01:22;98546.66;;;-7.67;87.88
43741;BME280;29352;48.708;9.290;2023-01-28T07:03:47;98554.50;;;-7.52;87.62
43741;BME280;29352;48.708;9.290;2023-01-28T07:06:12;98561.94;;;-7.46;87.01
43741;BME280;29352;48.708;9.290;2023-01-28T07:08:38;98555.19;;;-7.65;87.75
43741;BME280;29352;48.708;9.290;2023-01-28T07:11:04;98558.63;;;-7.64;87.57
43741;BME280;29352;48.708;9.290;2023-01-28T07:13:30;98564.41;;;-7.75;88.02
43741;BME280;29352;48.708;9.290;2023-01-28T07:15:55;98561.72;;;-7.73;88.49
43741;BME280;29352;48.708;9.290;2023-01-28T07:18:21;98560.34;;;-7.49;87.65
43741;BME280;29352;48.708;9.290;2023-01-28T07:20:46;98569.75;;;-7.78;88.24
43741;BME280;29352;48.708;9.290;2023-01-28T07:23:12;98565.06;;;-7.55;87.83
43741;BME280;29352;48.708;9.290;2023-01-28T07:25:38;98567.06;;;-7.60;88.29
43741;BME280;29352;48.708;9.290;2023-01-28T07:28:04;98568.75;;;-7.59;88.44
43741;BME280;29352;48.708;9.290;2023-01-28T07:30:30;98575.00;;;-7.48;88.01
43741;BME280;29352;48.708;9.290;2023-01-28T07:32:57;98570.56;;;-7.62;88.11
43741;BME280;29352;48.708;9.290;2023-01-28T07:35:24;98576.50;;;-7.44;88.24
43741;BME280;29352;48.708;9.290;2023-01-28T07:37:52;98582.09;;;-7.35;87.78
43741;BME280;29352;48.708;9.290;2023-01-28T07:40:19;98585.09;;;-7.27;87.38
43741;BME280;29352;48.708;9.290;2023-01-28T07:42:45;98574.59;;;-7.40;87.69
43741;BME280;29352;48.708;9.290;2023-01-28T07:45:11;98582.47;;;-7.11;86.84
43741;BME280;29352;48.708;9.290;2023-01-28T07:47:37;98582.78;;;-7.48;87.51
43741;BME280;29352;48.708;9.290;2023-01-28T07:50:02;98580.53;;;-7.08;86.96
43741;BME280;29352;48.708;9.290;2023-01-28T07:52:28;98588.59;;;-7.12;87.02
43741;BME280;29352;48.708;9.290;2023-01-28T07:54:53;98584.59;;;-7.34;87.30
43741;BME280;29352;48.708;9.290;2023-01-28T07:57:19;98586.78;;;-7.26;86.96
43741;BME280;29352;48.708;9.290;2023-01-28T07:59:50;98589.09;;;-7.22;86.89
43741;BME280;29352;48.708;9.290;2023-01-28T08:02:16;98589.00;;;-7.20;87.08
43741;BME280;29352;48.708;9.290;2023-01-28T08:04:43;98588.97;;;-7.04;86.34
43741;BME280;29352;48.708;9.290;2023-01-28T08:07:09;98596.69;;;-6.88;85.69
43741;BME280;29352;48.708;9.290;2023-01-28T08:09:34;98596.34;;;-6.82;85.81
43741;BME280;29352;48.708;9.290;2023-01-28T08:12:03;98606.72;;;-6.82;85.40
43741;BME280;29352;48.708;9.290;2023-01-28T08:14:29;98612.59;;;-6.64;84.89
43741;BME280;29352;48.708;9.290;2023-01-28T08:16:54;98605.56;;;-6.77;84.59
43741;BME280;29352;48.708;9.290;2023-01-28T08:19:19;98607.28;;;-6.92;85.63
43741;BME280;29352;48.708;9.290;2023-01-28T08:21:48;98599.22;;;-6.87;85.19
43741;BME280;29352;48.708;9.290;2023-01-28T08:24:15;98608.84;;;-6.89;85.46
43741;BME280;29352;48.708;9.290;2023-01-28T08:26:41;98609.47;;;-6.70;84.79
43741;BME280;29352;48.708;9.290;2023-01-28T08:29:07;98612.09;;;-6.41;83.34
43741;BME280;29352;48.708;9.290;2023-01-28T08:31:33;98606.41;;;-6.48;83.66
43741;BME280;29352;48.708;9.290;2023-01-28T08:33:59;98616.16;;;-6.51;83.68
43741;BME280;29352;48.708;9.290;2023-01-28T08:36:24;98609.78;;;-6.46;84.09
43741;BME280;29352;48.708;9.290;2023-01-28T08:38:51;98615.03;;;-6.61;83.98
43741;BME280;29352;48.708;9.290;2023-01-28T08:41:21;98618.28;;;-6.58;83.69
43741;BME280;29352;48.708;9.290;2023-01-28T08:43:47;98612.78;;;-6.68;83.20
43741;BME280;29352;48.708;9.290;2023-01-28T08:46:14;98618.22;;;-6.56;83.95
43741;BME280;29352;48.708;9.290;2023-01-28T08:48:40;98620.44;;;-6.50;83.66
43741;BME280;29352;48.708;9.290;2023-01-28T08:51:06;98622.00;;;-6.48;83.30
43741;BME280;29352;48.708;9.290;2023-01-28T08:53:32;98623.75;;;-6.62;83.68
43741;BME280;29352;48.708;9.290;2023-01-28T08:55:57;98629.94;;;-6.65;82.89
43741;BME280;29352;48.708;9.290;2023-01-28T08:58:23;98625.00;;;-6.39;83.50
43741;BME280;29352;48.708;9.290;2023-01-28T09:00:49;98626.50;;;-6.35;83.78
43741;BME280;29352;48.708;9.290;2023-01-28T09:03:16;98634.00;;;-6.31;82.78
43741;BME280;29352;48.708;9.290;2023-01-28T09:05:42;98629.75;;;-6.18;82.00
43741;BME280;29352;48.708;9.290;2023-01-28T09:08:12;98626.19;;;-6.59;82.16
43741;BME280;29352;48.708;9.290;2023-01-28T09:10:39;98632.50;;;-6.35;82.31
43741;BME280;29352;48.708;9.290;2023-01-28T09:13:15;98629.63;;;-6.30;81.51
43741;BME280;29352;48.708;9.290;2023-01-28T09:15:41;98631.16;;;-5.98;81.87
43741;BME280;29352;48.708;9.290;2023-01-28T09:18:07;98634.94;;;-5.89;81.09
43741;BME280;29352;48.708;9.290;2023-01-28T09:20:32;98631.59;;;-5.91;81.20
43741;BME280;29352;48.708;9.290;2023-01-28T09:22:59;98641.44;;;-5.96;81.19
43741;BME280;29352;48.708;9.290;2023-01-28T09:25:26;98641.81;;;-5.88;80.76
43741;BME280;29352;48.708;9.290;2023-01-28T09:27:51;98639.25;;;-5.61;79.87
43741;BME280;29352;48.708;9.290;2023-01-28T09:30:17;98640.22;;;-5.76;79.73
43741;BME280;29352;48.708;9.290;2023-01-28T09:32:42;98645.28;;;-5.60;80.15
43741;BME280;29352;48.708;9.290;2023-01-28T09:35:08;98649.28;;;-5.55;80.02
43741;BME280;29352;48.708;9.290;2023-01-28T09:37:34;98648.38;;;-5.68;79.53
43741;BME280;29352;48.708;9.290;2023-01-28T09:40:00;98655.00;;;-5.77;79.49
43741;BME280;29352;48.708;9.290;2023-01-28T09:45:55;98644.41;;;-5.05;75.65
43741;BME280;29352;48.708;9.290;2023-01-28T09:48:34;98654.91;;;-4.80;74.71
43741;BME280;29352;48.708;9.290;2023-01-28T09:51:12;98656.78;;;-5.09;75.71
43741;BME280;29352;48.708;9.290;2023-01-28T09:54:11;98666.31;;;-5.22;75.90
43741;BME280;29352;48.708;9.290;2023-01-28T09:56:54;98674.38;;;-5.39;76.39
43741;BME280;29352;48.708;9.290;2023-01-28T09:59:33;98666.88;;;-5.73;78.82
43741;BME280;29352;48.708;9.290;2023-01-28T10:02:22;98662.97;;;-5.65;79.16
43741;BME280;29352;48.708;9.290;2023-01-28T10:10:55;98665.34;;;-5.07;76.86
43741;BME280;29352;48.708;9.290;2023-01-28T10:16:34;98656.47;;;-4.77;74.71
43741;BME280;29352;48.708;9.290;2023-01-28T10:19:24;98650.91;;;-5.25;74.89
43741;BME280;29352;48.708;9.290;2023-01-28T10:22:06;98652.91;;;-5.57;78.44
43741;BME280;29352;48.708;9.290;2023-01-28T10:24:44;98654.59;;;-5.85;78.95
43741;BME280;29352;48.708;9.290;2023-01-28T10:27:19;98660.19;;;-5.62;77.78
43741;BME280;29352;48.708;9.290;2023-01-28T10:29:49;98643.13;;;-5.81;77.51
43741;BME280;29352;48.708;9.290;2023-01-28T10:32:33;98648.38;;;-5.68;77.76
43741;BME280;29352;48.708;9.290;2023-01-28T10:35:07;98640.31;;;-5.63;77.48
43741;BME280;29352;48.708;9.290;2023-01-28T10:37:35;98644.66;;;-5.50;76.91
43741;BME280;29352;48.708;9.290;2023-01-28T10:40:04;98644.91;;;-5.54;76.61
43741;BME280;29352;48.708;9.290;2023-01-28T10:42:37;98643.25;;;-5.55;77.08
43741;BME280;29352;48.708;9.290;2023-01-28T10:45:18;98643.47;;;-5.87;77.04
43741;BME280;29352;48.708;9.290;2023-01-28T10:48:01;98640.88;;;-5.31;76.56
43741;BME280;29352;48.708;9.290;2023-01-28T10:50:37;98643.41;;;-5.44;76.63
43741;BME280;29352;48.708;9.290;2023-01-28T10:53:14;98628.50;;;-5.28;75.59
43741;BME280;29352;48.708;9.290;2023-01-28T10:55:51;98631.00;;;-5.53;76.52
43741;BME280;29352;48.708;9.290;2023-01-28T10:58:26;98642.78;;;-5.62;76.73
43741;BME280;29352;48.708;9.290;2023-01-28T11:00:59;98642.03;;;-5.50;77.39
43741;BME280;29352;48.708;9.290;2023-01-28T11:03:27;98639.16;;;-5.45;76.16
43741;BME280;29352;48.708;9.290;2023-01-28T11:05:56;98637.22;;;-5.56;76.58
43741;BME280;29352;48.708;9.290;2023-01-28T11:08:24;98638.09;;;-5.15;74.42
43741;BME280;29352;48.708;9.290;2023-01-28T11:10:53;98651.41;;;-5.47;74.96
43741;BME280;29352;48.708;9.290;2023-01-28T11:13:28;98650.31;;;-5.57;76.97
43741;BME280;29352;48.708;9.290;2023-01-28T11:16:02;98645.63;;;-5.38;77.63
43741;BME280;29352;48.708;9.290;2023-01-28T11:18:38;98655.22;;;-5.38;76.50
43741;BME280;29352;48.708;9.290;2023-01-28T11:21:20;98644.38;;;-5.59;76.88
43741;BME280;29352;48.708;9.290;2023-01-28T11:23:53;98648.28;;;-5.52;77.27
43741;BME280;29352;48.708;9.290;2023-01-28T11:26:27;98651.41;;;-5.47;77.14
43741;BME280;29352;48.708;9.290;2023-01-28T11:28:56;98646.38;;;-5.50;77.39
43741;BME280;29352;48.708;9.290;2023-01-28T11:31:23;98650.28;;;-5.43;77.84
43741;BME280;29352;48.708;9.290;2023-01-28T11:34:01;98652.34;;;-5.48;78.13
43741;BME280;29352;48.708;9.290;2023-01-28T11:36:32;98654.81;;;-5.74;78.83
43741;BME280;29352;48.708;9.290;2023-01-28T11:39:37;98657.19;;;-5.56;78.53
43741;BME280;29352;48.708;9.290;2023-01-28T11:44:43;98656.16;;;-5.39;78.38
43741;BME280;29352;48.708;9.290;2023-01-28T11:53:09;98654.78;;;-5.59;78.15
43741;BME280;29352;48.708;9.290;2023-01-28T11:55:41;98649.56;;;-5.45;77.87
43741;BME280;29352;48.708;9.290;2023-01-28T12:02:08;98651.78;;;-5.39;78.94
43741;BME280;29352;48.708;9.290;2023-01-28T12:05:15;98650.94;;;-5.54;78.79
43741;BME280;29352;48.708;9.290;2023-01-28T12:11:54;98641.13;;;-5.21;78.51
43741;BME280;29352;48.708;9.290;2023-01-28T12:17:07;98652.03;;;-5.43;79.04
43741;BME280;29352;48.708;9.290;2023-01-28T12:23:18;98651.72;;;-5.66;79.86
43741;BME280;29352;48.708;9.290;2023-01-28T12:26:15;98639.09;;;-5.72;79.15
43741;BME280;29352;48.708;9.290;2023-01-28T12:34:35;98651.81;;;-5.53;79.07
43741;BME280;29352;48.708;9.290;2023-01-28T12:37:36;98641.00;;;-5.47;78.18
43741;BME280;29352;48.708;9.290;2023-01-28T12:40:32;98647.31;;;-5.51;78.66
43741;BME280;29352;48.708;9.290;2023-01-28T12:43:23;98652.41;;;-5.77;79.97
43741;BME280;29352;48.708;9.290;2023-01-28T12:45:59;98650.06;;;-5.67;79.33
43741;BME280;29352;48.708;9.290;2023-01-28T12:48:48;98650.25;;;-5.70;79.23
43741;BME280;29352;48.708;9.290;2023-01-28T12:51:29;98647.00;;;-5.74;79.30
43741;BME280;29352;48.708;9.290;2023-01-28T12:54:17;98645.88;;;-5.69;79.08
43741;BME280;29352;48.708;9.290;2023-01-28T12:56:50;98648.03;;;-5.76;78.56
43741;BME280;29352;48.708;9.290;2023-01-28T12:59:28;98647.75;;;-5.86;78.76
43741;BME280;29352;48.708;9.290;2023-01-28T13:02:14;98636.38;;;-5.56;78.53
43741;BME280;29352;48.708;9.290;2023-01-28T13:05:12;98639.16;;;-5.45;78.45
43741;BME280;29352;48.708;9.290;2023-01-28T13:07:52;98640.81;;;-5.44;78.16
43741;BME280;29352;48.708;9.290;2023-01-28T13:10:35;98637.06;;;-5.81;78.76
43741;BME280;29352;48.708;9.290;2023-01-28T13:13:08;98639.56;;;-5.65;78.54
43741;BME280;29352;48.708;9.290;2023-01-28T13:15:43;98642.91;;;-5.63;79.78
43741;BME280;29352;48.708;9.290;2023-01-28T13:24:03;98651.59;;;-5.50;79.03
43741;BME280;29352;48.708;9.290;2023-01-28T13:26:43;98645.81;;;-5.97;81.09
43741;BME280;29352;48.708;9.290;2023-01-28T13:31:48;98641.69;;;-5.72;80.62
43741;BME280;29352;48.708;9.290;2023-01-28T13:40:20;98644.53;;;-5.48;79.70
43741;BME280;29352;48.708;9.290;2023-01-28T13:43:03;98638.59;;;-5.50;79.87
43741;BME280;29352;48.708;9.290;2023-01-28T13:45:31;98639.94;;;-5.30;78.81
43741;BME280;29352;48.708;9.290;2023-01-28T13:48:18;98629.00;;;-5.08;78.76
43741;BME280;29352;48.708;9.290;2023-01-28T13:50:53;98636.34;;;-5.42;79.12
43741;BME280;29352;48.708;9.290;2023-01-28T13:53:36;98632.44;;;-4.95;79.01
43741;BME280;29352;48.708;9.290;2023-01-28T13:56:20;98637.78;;;-4.96;79.95
43741;BME280;29352;48.708;9.290;2023-01-28T13:59:20;98645.63;;;-5.38;80.92
43741;BME280;29352;48.708;9.290;2023-01-28T14:02:18;98654.75;;;-5.45;81.91
43741;BME280;29352;48.708;9.290;2023-01-28T14:08:11;98650.31;;;-5.57;82.59
43741;BME280;29352;48.708;9.290;2023-01-28T14:10:58;98657.66;;;-5.50;82.47
43741;BME280;29352;48.708;9.290;2023-01-28T14:13:54;98659.88;;;-5.58;82.43
43741;BME280;29352;48.708;9.290;2023-01-28T14:16:56;98667.22;;;-5.64;83.20
43741;BME280;29352;48.708;9.290;2023-01-28T14:19:32;98676.16;;;-5.68;82.84
43741;BME280;29352;48.708;9.290;2023-01-28T14:22:06;98681.53;;;-5.86;83.37
43741;BME280;29352;48.708;9.290;2023-01-28T14:24:33;98673.19;;;-5.62;82.47
43741;BME280;29352;48.708;9.290;2023-01-28T14:27:11;98676.16;;;-5.83;82.52
43741;BME280;29352;48.708;9.290;2023-01-28T14:30:36;98687.41;;;-5.82;82.92
43741;BME280;29352;48.708;9.290;2023-01-28T14:33:13;98682.84;;;-5.79;83.13
43741;BME280;29352;48.708;9.290;2023-01-28T14:35:45;98686.09;;;-5.89;82.49
43741;BME280;29352;48.708;9.290;2023-01-28T14:38:18;98689.97;;;-5.68;82.03